Time,TemperatureF,DewpointF,PressureIn,WindDirection,WindDirectionDegrees,WindSpeedMPH,WindSpeedGustMPH,Humidity,HourlyPrecipIn,Conditions,Clouds,dailyrainin,SoftwareType,DateUTC
2013-03-03 00:00:00,41.7,29.7,30.12,WSW,248,0.0,0.0,62,0.00,,SCT025,0.00,VWS V14.00,2013-03-03 05:00:00,
2013-03-03 00:05:00,42.3,31.4,30.12,WSW,248,0.0,0.0,65,0.00,,SCT025,0.00,VWS V14.00,2013-03-03 05:05:00,
2013-03-03 00:10:00,42.3,30.2,30.12,WSW,248,0.0,0.0,62,0.00,,SCT025,0.00,VWS V14.00,2013-03-03 05:10:00,
2013-03-03 00:15:00,42.4,30.8,30.12,WSW,248,0.0,0.0,63,0.00,,SCT025,0.00,VWS V14.00,2013-03-03 05:15:00,
2013-03-03 00:20:00,42.4,30.4,30.15,WSW,248,0.0,0.0,62,0.00,,SCT025,0.00,VWS V14.00,2013-03-03 05:20:00,
2013-03-03 00:25:00,42.3,29.4,30.15,WSW,248,0.0,0.0,60,0.00,,SCT025,0.00,VWS V14.00,2013-03-03 05:25:00,
2013-03-03 00:30:00,42.3,29.4,30.12,WSW,248,0.0,0.0,60,0.00,,SCT025,0.00,VWS V14.00,2013-03-03 05:30:00,
2013-03-03 00:35:00,42.4,31.1,30.12,WSW,248,0.0,0.0,64,0.00,,SCT025,0.00,VWS V14.00,2013-03-03 05:35:00,
2013-03-03 00:40:00,42.3,29.4,30.12,WSW,248,0.0,0.0,60,0.00,,SCT025,0.00,VWS V14.00,2013-03-03 05:40:00,
2013-03-03 00:45:00,42.3,29.4,30.12,WSW,248,0.0,0.0,60,0.00,,SCT025,0.00,VWS V14.00,2013-03-03 05:45:00,
2013-03-03 00:50:00,42.3,29.0,30.12,WSW,248,0.0,0.0,59,0.00,,SCT025,0.00,VWS V14.00,2013-03-03 05:50:00,
2013-03-03 00:55:00,42.3,29.0,30.12,WSW,248,0.0,0.0,59,0.00,,SCT025,0.00,VWS V14.00,2013-03-03 05:55:00,
2013-03-03 01:00:00,41.7,28.9,30.12,WSW,248,0.0,0.0,60,0.00,,SCT025,0.00,VWS V14.00,2013-03-03 06:00:00,
2013-03-03 01:05:00,41.5,29.1,30.12,WSW,248,0.0,0.0,61,0.00,,SCT025,0.00,VWS V14.00,2013-03-03 06:05:00,
2013-03-03 01:10:00,41.5,29.1,30.12,WSW,248,0.0,0.0,61,0.00,,SCT025,0.00,VWS V14.00,2013-03-03 06:10:00,
2013-03-03 01:15:00,41.5,29.1,30.12,WSW,248,0.0,0.0,61,0.00,,SCT025,0.00,VWS V14.00,2013-03-03 06:15:00,
2013-03-03 01:20:00,40.8,29.2,30.09,WSW,248,0.0,0.0,63,0.00,,SCT025,0.00,VWS V14.00,2013-03-03 06:20:00,
2013-03-03 01:25:00,40.6,29.0,30.09,WSW,248,0.0,0.0,63,0.00,,SCT025,0.00,VWS V14.00,2013-03-03 06:25:00,
2013-03-03 01:30:00,40.5,29.3,30.09,WSW,248,0.0,0.0,64,0.00,,SCT025,0.00,VWS V14.00,2013-03-03 06:30:00,
2013-03-03 01:35:00,40.5,28.9,30.09,WSW,248,0.0,0.0,63,0.00,,SCT025,0.00,VWS V14.00,2013-03-03 06:35:00,
2013-03-03 01:40:00,40.5,29.3,30.09,WSW,248,0.0,0.0,64,0.00,,SCT025,0.00,VWS V14.00,2013-03-03 06:40:00,
2013-03-03 01:45:00,40.5,29.3,30.09,West,270,1.1,1.1,64,0.00,,SCT025,0.00,VWS V14.00,2013-03-03 06:45:00,
2013-03-03 01:50:00,41.2,30.7,30.12,West,270,0.0,0.0,66,0.00,,SCT025,0.00,VWS V14.00,2013-03-03 06:50:00,
2013-03-03 01:55:00,41.7,31.2,30.12,West,270,2.0,2.0,66,0.00,,SCT025,0.00,VWS V14.00,2013-03-03 06:55:00,
2013-03-03 02:00:00,41.9,31.0,30.12,NW,315,1.3,1.3,65,0.00,,SCT025,0.00,VWS V14.00,2013-03-03 07:00:00,
2013-03-03 02:05:00,42.4,27.9,30.12,West,270,0.0,0.0,56,0.00,,SCT025,0.00,VWS V14.00,2013-03-03 07:05:00,
2013-03-03 02:10:00,42.4,27.0,30.12,West,270,0.0,0.0,54,0.00,,SCT025,0.00,VWS V14.00,2013-03-03 07:10:00,
2013-03-03 02:15:00,42.4,27.0,30.12,WNW,292,0.0,0.0,54,0.00,,SCT025,0.00,VWS V14.00,2013-03-03 07:15:00,
2013-03-03 02:20:00,42.4,25.6,30.12,WSW,248,1.1,1.1,51,0.00,,SCT025,0.00,VWS V14.00,2013-03-03 07:20:00,
2013-03-03 02:25:00,42.4,25.1,61.18,North,0,0.0,0.0,50,61.68,,SCT025,61.68,VWS V14.00,2013-03-03 07:25:00,
2013-03-03 02:30:00,42.3,24.5,61.18,WSW,248,0.0,0.0,49,0.00,,SCT025,0.00,VWS V14.00,2013-03-03 07:30:00,
2013-03-03 02:35:00,42.3,24.5,30.09,WNW,292,0.0,0.0,49,0.00,,SCT025,0.00,VWS V14.00,2013-03-03 07:35:00,
2013-03-03 02:40:00,41.9,24.1,30.09,NNW,338,0.0,0.0,49,0.00,,SCT025,0.00,VWS V14.00,2013-03-03 07:40:00,
2013-03-03 02:45:00,41.9,24.1,30.09,West,270,0.0,0.0,49,0.00,,SCT025,0.00,VWS V14.00,2013-03-03 07:45:00,
2013-03-03 02:50:00,41.9,24.1,30.09,West,270,0.0,0.0,49,0.00,,SCT025,0.00,VWS V14.00,2013-03-03 07:50:00,
2013-03-03 02:55:00,41.7,24.0,30.09,West,270,0.0,0.0,49,0.00,,SCT025,0.00,VWS V14.00,2013-03-03 07:55:00,
2013-03-03 03:00:00,41.7,23.5,30.09,West,270,0.0,0.0,48,0.00,,SCT025,0.00,VWS V14.00,2013-03-03 08:00:00,
2013-03-03 03:05:00,41.7,23.5,30.09,West,270,1.6,1.6,48,0.00,,SCT025,0.00,VWS V14.00,2013-03-03 08:05:00,
2013-03-03 03:10:00,41.7,23.5,30.09,West,270,0.0,0.0,48,0.00,,SCT025,0.00,VWS V14.00,2013-03-03 08:10:00,
2013-03-03 03:15:00,41.7,23.5,30.09,WNW,292,1.6,1.6,48,0.00,,SCT025,0.00,VWS V14.00,2013-03-03 08:15:00,
2013-03-03 03:20:00,41.7,23.5,30.09,West,270,1.6,1.6,48,0.00,,SCT025,0.00,VWS V14.00,2013-03-03 08:20:00,
2013-03-03 03:25:00,41.9,23.2,30.09,WNW,292,2.2,2.2,47,0.00,,SCT025,0.00,VWS V14.00,2013-03-03 08:25:00,
2013-03-03 03:30:00,41.9,22.6,30.09,WNW,292,0.0,0.0,46,0.00,,SCT025,0.00,VWS V14.00,2013-03-03 08:30:00,
2013-03-03 03:35:00,41.7,22.0,30.09,West,270,1.1,1.1,45,0.00,,SCT025,0.00,VWS V14.00,2013-03-03 08:35:00,
2013-03-03 03:40:00,41.7,21.4,30.09,NNW,338,0.9,0.9,44,0.00,,SCT025,0.00,VWS V14.00,2013-03-03 08:40:00,
2013-03-03 03:45:00,41.7,22.0,30.09,West,270,1.1,1.1,45,0.00,,SCT025,0.00,VWS V14.00,2013-03-03 08:45:00,
2013-03-03 03:50:00,41.7,21.4,30.12,WNW,292,0.0,0.0,44,0.00,,SCT025,0.00,VWS V14.00,2013-03-03 08:50:00,
2013-03-03 03:55:00,41.7,21.4,30.12,West,270,0.0,0.0,44,0.00,,SCT025,0.00,VWS V14.00,2013-03-03 08:55:00,
2013-03-03 04:00:00,41.7,21.4,30.09,WNW,292,0.0,0.0,44,0.00,,SCT025,0.00,VWS V14.00,2013-03-03 09:00:00,
2013-03-03 04:05:00,41.5,21.3,30.09,West,270,1.1,1.1,44,0.00,,SCT025,0.00,VWS V14.00,2013-03-03 09:05:00,
2013-03-03 04:10:00,41.7,21.4,30.09,West,270,0.0,0.0,44,0.00,,SCT025,0.00,VWS V14.00,2013-03-03 09:10:00,
2013-03-03 04:15:00,41.5,21.3,30.09,West,270,2.2,2.2,44,0.00,,SCT025,0.00,VWS V14.00,2013-03-03 09:15:00,
2013-03-03 04:20:00,41.5,21.3,30.09,WNW,292,0.0,0.0,44,0.00,,SCT025,0.00,VWS V14.00,2013-03-03 09:20:00,
2013-03-03 04:25:00,41.4,21.1,30.09,West,270,2.2,2.2,44,0.00,,SCT025,0.00,VWS V14.00,2013-03-03 09:25:00,
2013-03-03 04:30:00,41.4,21.1,30.12,West,270,0.0,0.0,44,0.00,,SCT025,0.00,VWS V14.00,2013-03-03 09:30:00,
2013-03-03 04:35:00,41.4,21.1,30.12,WNW,292,0.0,0.0,44,0.00,,SCT025,0.00,VWS V14.00,2013-03-03 09:35:00,
2013-03-03 04:40:00,41.0,21.3,30.12,West,270,0.0,0.0,45,0.00,,SCT025,0.00,VWS V14.00,2013-03-03 09:40:00,
2013-03-03 04:45:00,40.8,21.7,30.12,WNW,292,0.9,0.9,46,0.00,,SCT025,0.00,VWS V14.00,2013-03-03 09:45:00,
2013-03-03 04:50:00,40.8,21.7,30.09,West,270,0.9,0.9,46,0.00,,SCT025,0.00,VWS V14.00,2013-03-03 09:50:00,
2013-03-03 04:54:00,40.8,21.7,30.09,West,270,0.0,0.0,46,0.00,,SCT025,0.00,VWS V14.00,2013-03-03 09:54:00,
2013-03-03 04:59:00,40.8,21.7,30.12,West,270,0.0,0.0,46,0.00,,SCT025,0.00,VWS V14.00,2013-03-03 09:59:00,
2013-03-03 05:04:00,40.8,21.7,30.12,West,270,0.0,0.0,46,0.00,,SCT025,0.00,VWS V14.00,2013-03-03 10:04:00,
2013-03-03 05:09:00,40.8,21.7,30.12,NW,315,0.0,0.0,46,0.00,,SCT025,0.00,VWS V14.00,2013-03-03 10:09:00,
2013-03-03 05:14:00,40.8,22.2,30.09,WNW,292,0.9,0.9,47,0.00,,SCT025,0.00,VWS V14.00,2013-03-03 10:14:00,
2013-03-03 05:19:00,40.8,22.2,30.09,WNW,292,2.0,2.0,47,0.00,,SCT025,0.00,VWS V14.00,2013-03-03 10:19:00,
2013-03-03 05:24:00,40.8,22.2,30.09,West,270,0.0,0.0,47,0.00,,SCT025,0.00,VWS V14.00,2013-03-03 10:24:00,
2013-03-03 05:29:00,40.6,21.5,30.09,West,270,0.0,0.0,46,0.00,,SCT025,0.00,VWS V14.00,2013-03-03 10:29:00,
2013-03-03 05:34:00,40.5,21.3,30.09,West,270,0.0,0.0,46,0.00,,SCT025,0.00,VWS V14.00,2013-03-03 10:34:00,
2013-03-03 05:39:00,40.3,21.2,30.09,West,270,0.0,0.0,46,0.00,,SCT025,0.00,VWS V14.00,2013-03-03 10:39:00,
2013-03-03 05:44:00,40.3,21.7,30.09,West,270,0.0,0.0,47,0.00,,SCT025,0.00,VWS V14.00,2013-03-03 10:44:00,
2013-03-03 05:49:00,40.1,22.5,30.12,West,270,1.1,1.1,49,0.00,,SCT025,0.00,VWS V14.00,2013-03-03 10:49:00,
2013-03-03 05:54:00,40.1,22.5,30.12,West,270,2.0,2.0,49,0.00,,SCT025,0.00,VWS V14.00,2013-03-03 10:54:00,
2013-03-03 05:59:00,39.9,23.3,30.12,West,270,0.9,0.9,51,0.00,,SCT025,0.00,VWS V14.00,2013-03-03 10:59:00,
2013-03-03 06:04:00,39.9,23.3,30.12,West,270,0.0,0.0,51,0.00,,SCT025,0.00,VWS V14.00,2013-03-03 11:04:00,
2013-03-03 06:09:00,39.4,23.2,30.12,West,270,0.0,0.0,52,0.00,,SCT025,0.00,VWS V14.00,2013-03-03 11:09:00,
2013-03-03 06:14:00,39.2,23.5,30.12,West,270,0.0,0.0,53,0.00,,SCT025,0.00,VWS V14.00,2013-03-03 11:14:00,
2013-03-03 06:19:00,39.2,23.5,30.12,WNW,292,0.9,0.9,53,0.00,,SCT025,0.00,VWS V14.00,2013-03-03 11:19:00,
2013-03-03 06:24:00,38.7,23.5,30.12,West,270,0.0,0.0,54,0.00,,SCT025,0.00,VWS V14.00,2013-03-03 11:24:00,
2013-03-03 06:29:00,38.7,23.0,30.12,West,270,0.0,0.0,53,0.00,,SCT025,0.00,VWS V14.00,2013-03-03 11:29:00,
2013-03-03 06:34:00,38.5,22.9,30.12,West,270,1.3,1.3,53,0.00,,SCT025,0.00,VWS V14.00,2013-03-03 11:34:00,
2013-03-03 06:39:00,38.3,23.1,30.12,West,270,0.0,0.0,54,0.00,,SCT025,0.00,VWS V14.00,2013-03-03 11:39:00,
2013-03-03 06:44:00,38.3,23.1,30.12,West,270,0.0,0.0,54,0.00,,SCT025,0.00,VWS V14.00,2013-03-03 11:44:00,
2013-03-03 06:49:00,38.3,23.1,30.12,West,270,1.1,1.1,54,0.00,,SCT025,0.00,VWS V14.00,2013-03-03 11:49:00,
2013-03-03 06:54:00,38.1,23.0,30.12,West,270,0.0,0.0,54,0.00,,SCT025,0.00,VWS V14.00,2013-03-03 11:54:00,
2013-03-03 06:59:00,38.1,23.0,30.12,WNW,292,0.0,0.0,54,0.00,,SCT025,0.00,VWS V14.00,2013-03-03 11:59:00,
2013-03-03 07:04:00,37.9,22.8,30.12,WNW,292,0.0,0.0,54,0.00,,SCT025,0.00,VWS V14.00,2013-03-03 12:04:00,
2013-03-03 07:09:00,37.9,22.8,30.12,West,270,0.0,0.0,54,0.00,,SCT025,0.00,VWS V14.00,2013-03-03 12:09:00,
2013-03-03 07:14:00,38.1,23.4,30.12,West,270,0.0,0.0,55,0.00,,SCT025,0.00,VWS V14.00,2013-03-03 12:14:00,
2013-03-03 07:19:00,38.1,23.4,30.12,West,270,0.0,0.0,55,0.00,,SCT025,0.00,VWS V14.00,2013-03-03 12:19:00,
2013-03-03 07:24:00,38.5,23.7,30.12,West,270,0.0,0.0,55,0.00,,SCT025,0.00,VWS V14.00,2013-03-03 12:24:00,
2013-03-03 07:29:00,38.7,23.9,30.12,West,270,2.9,2.9,55,0.00,,SCT025,0.00,VWS V14.00,2013-03-03 12:29:00,
2013-03-03 07:34:00,38.8,24.1,30.12,West,270,0.0,0.0,55,0.00,,SCT025,0.00,VWS V14.00,2013-03-03 12:34:00,
2013-03-03 07:39:00,39.0,24.2,30.12,West,270,2.5,2.5,55,0.00,,SCT025,0.00,VWS V14.00,2013-03-03 12:39:00,
2013-03-03 07:44:00,41.0,26.1,30.12,West,270,0.0,0.0,55,0.00,,SCT025,0.00,VWS V14.00,2013-03-03 12:44:00,
2013-03-03 07:49:00,42.4,26.5,30.12,West,270,0.0,0.0,53,0.00,,SCT025,0.00,VWS V14.00,2013-03-03 12:49:00,
2013-03-03 07:54:00,42.4,26.5,30.12,West,270,0.0,0.0,53,0.00,,SCT025,0.00,VWS V14.00,2013-03-03 12:54:00,
2013-03-03 07:59:00,44.8,27.3,30.12,West,270,1.3,1.3,50,0.00,,SCT025,0.00,VWS V14.00,2013-03-03 12:59:00,
2013-03-03 08:04:00,45.9,27.3,30.12,West,270,2.0,2.0,48,0.00,,SCT025,0.00,VWS V14.00,2013-03-03 13:04:00,
2013-03-03 08:09:00,46.0,26.4,30.12,West,270,0.9,0.9,46,0.00,,SCT025,0.00,VWS V14.00,2013-03-03 13:09:00,
2013-03-03 08:14:00,46.9,25.6,30.15,West,270,2.0,2.0,43,0.00,,SCT025,0.00,VWS V14.00,2013-03-03 13:14:00,
2013-03-03 08:19:00,47.3,26.5,30.15,WSW,248,3.4,3.4,44,0.00,,SCT025,0.00,VWS V14.00,2013-03-03 13:19:00,
2013-03-03 08:24:00,47.3,24.8,30.15,WSW,248,3.1,3.1,41,0.00,,SCT025,0.00,VWS V14.00,2013-03-03 13:24:00,
2013-03-03 08:29:00,47.7,25.1,30.15,West,270,3.1,3.1,41,0.00,,SCT025,0.00,VWS V14.00,2013-03-03 13:29:00,
2013-03-03 08:34:00,48.0,25.5,30.15,West,270,2.7,2.7,41,0.00,,SCT025,0.00,VWS V14.00,2013-03-03 13:34:00,
2013-03-03 08:39:00,48.0,25.5,30.15,West,270,2.5,2.5,41,0.00,,SCT025,0.00,VWS V14.00,2013-03-03 13:39:00,
2013-03-03 08:44:00,51.1,26.4,30.15,West,270,5.4,5.4,38,0.00,,SCT025,0.00,VWS V14.00,2013-03-03 13:44:00,
2013-03-03 08:49:00,51.4,26.0,30.15,West,270,0.9,0.9,37,0.00,,SCT025,0.00,VWS V14.00,2013-03-03 13:49:00,
2013-03-03 08:54:00,50.5,24.6,30.15,West,270,3.1,3.1,36,0.00,,SCT025,0.00,VWS V14.00,2013-03-03 13:54:00,
2013-03-03 08:59:00,50.4,24.4,30.15,WSW,248,1.1,1.1,36,0.00,,SCT025,0.00,VWS V14.00,2013-03-03 13:59:00,
2013-03-03 09:04:00,50.2,24.3,30.18,WNW,292,0.0,0.0,36,0.00,,SCT025,0.00,VWS V14.00,2013-03-03 14:04:00,
2013-03-03 09:09:00,50.4,24.4,91.07,WNW,292,3.6,3.6,36,0.00,,SCT025,0.00,VWS V14.00,2013-03-03 14:09:00,
2013-03-03 09:14:00,50.4,24.4,30.18,West,270,2.7,2.7,36,0.00,,SCT025,0.00,VWS V14.00,2013-03-03 14:14:00,
2013-03-03 09:19:00,50.9,25.6,30.18,WNW,292,4.0,4.0,37,0.00,,SCT025,0.00,VWS V14.00,2013-03-03 14:19:00,
2013-03-03 09:24:00,50.9,25.6,30.18,ENE,68,1.3,1.3,37,0.00,,SCT025,0.00,VWS V14.00,2013-03-03 14:24:00,
2013-03-03 09:29:00,50.7,24.8,30.18,West,270,1.1,1.1,36,0.00,,SCT025,0.00,VWS V14.00,2013-03-03 14:29:00,
2013-03-03 09:34:00,50.7,24.1,30.18,West,270,2.0,2.0,35,0.00,,SCT025,0.00,VWS V14.00,2013-03-03 14:34:00,
2013-03-03 09:39:00,50.4,22.4,30.18,WSW,248,3.4,3.4,33,0.00,,SCT025,0.00,VWS V14.00,2013-03-03 14:39:00,
2013-03-03 09:44:00,50.2,22.2,30.18,WSW,248,3.4,3.4,33,0.00,,SCT025,0.00,VWS V14.00,2013-03-03 14:44:00,
2013-03-03 09:49:00,50.5,23.2,30.18,West,270,0.0,0.0,34,0.00,,SCT025,0.00,VWS V14.00,2013-03-03 14:49:00,
2013-03-03 09:54:00,50.5,21.8,30.18,West,270,3.4,3.4,32,0.00,,SCT025,0.00,VWS V14.00,2013-03-03 14:54:00,
2013-03-03 09:59:00,50.4,22.4,30.18,West,270,0.0,0.0,33,0.00,,SCT025,0.00,VWS V14.00,2013-03-03 14:59:00,
2013-03-03 10:04:00,50.4,21.6,30.18,NNW,338,6.5,6.5,32,0.00,,SCT025,0.00,VWS V14.00,2013-03-03 15:04:00,
2013-03-03 10:09:00,50.2,21.5,30.18,West,270,3.8,3.8,32,0.00,,SCT025,0.00,VWS V14.00,2013-03-03 15:09:00,
2013-03-03 10:14:00,50.2,22.2,30.18,West,270,0.0,0.0,33,0.00,,SCT025,0.00,VWS V14.00,2013-03-03 15:14:00,
2013-03-03 10:19:00,50.4,22.4,30.18,WNW,292,2.5,2.5,33,0.00,,SCT025,0.00,VWS V14.00,2013-03-03 15:19:00,
2013-03-03 10:24:00,50.5,21.8,30.18,WNW,292,4.9,4.9,32,0.00,,SCT025,0.00,VWS V14.00,2013-03-03 15:24:00,
2013-03-03 10:29:00,50.2,21.5,30.18,West,270,4.7,4.7,32,0.00,,SCT025,0.00,VWS V14.00,2013-03-03 15:29:00,
2013-03-03 10:34:00,50.7,22.7,30.18,West,270,2.0,2.0,33,0.00,,SCT025,0.00,VWS V14.00,2013-03-03 15:34:00,
2013-03-03 10:39:00,50.9,22.1,30.18,NW,315,1.3,1.3,32,0.00,,SCT025,0.00,VWS V14.00,2013-03-03 15:39:00,
2013-03-03 10:44:00,51.3,23.2,30.18,West,270,0.9,0.9,33,0.00,,SCT025,0.00,VWS V14.00,2013-03-03 15:44:00,
2013-03-03 10:49:00,51.1,22.3,30.18,NW,315,2.9,2.9,32,0.00,,SCT025,0.00,VWS V14.00,2013-03-03 15:49:00,
2013-03-03 10:54:00,51.3,22.4,30.18,West,270,3.1,3.1,32,0.00,,SCT025,0.00,VWS V14.00,2013-03-03 15:54:00,
2013-03-03 10:59:00,51.3,22.4,30.18,West,270,2.5,2.5,32,0.00,,SCT025,0.00,VWS V14.00,2013-03-03 15:59:00,
2013-03-03 11:04:00,51.6,22.7,30.15,West,270,8.1,8.1,32,0.00,,SCT025,0.00,VWS V14.00,2013-03-03 16:04:00,
2013-03-03 11:09:00,51.3,22.4,30.15,West,270,2.9,2.9,32,0.00,,SCT025,0.00,VWS V14.00,2013-03-03 16:09:00,
2013-03-03 11:14:00,51.3,22.4,30.15,WNW,292,2.7,2.7,32,0.00,,SCT025,0.00,VWS V14.00,2013-03-03 16:14:00,
2013-03-03 11:19:00,51.8,23.6,30.15,West,270,1.6,1.6,33,0.00,,SCT025,0.00,VWS V14.00,2013-03-03 16:19:00,
2013-03-03 11:24:00,52.0,23.1,30.15,West,270,2.0,2.0,32,0.00,,SCT025,0.00,VWS V14.00,2013-03-03 16:24:00,
2013-03-03 11:29:00,52.2,23.2,30.18,NNW,338,3.1,3.1,32,0.00,,SCT025,0.00,VWS V14.00,2013-03-03 16:29:00,
2013-03-03 11:34:00,52.5,24.3,30.18,WNW,292,4.7,4.7,33,0.00,,SCT025,0.00,VWS V14.00,2013-03-03 16:34:00,
2013-03-03 11:39:00,52.3,23.4,30.18,NW,315,3.1,3.1,32,0.00,,SCT025,0.00,VWS V14.00,2013-03-03 16:39:00,
2013-03-03 11:44:00,52.3,23.4,30.15,West,270,8.1,8.1,32,0.00,,SCT025,0.00,VWS V14.00,2013-03-03 16:44:00,
2013-03-03 11:49:00,52.3,23.4,30.15,West,270,4.3,4.3,32,0.00,,SCT025,0.00,VWS V14.00,2013-03-03 16:49:00,
2013-03-03 11:54:00,52.5,23.5,30.15,WNW,292,8.1,8.1,32,0.00,,SCT025,0.00,VWS V14.00,2013-03-03 16:54:00,
2013-03-03 11:59:00,52.7,23.7,30.15,NW,315,4.7,4.7,32,0.00,,SCT025,0.00,VWS V14.00,2013-03-03 16:59:00,
2013-03-03 12:04:00,52.7,23.7,30.15,West,270,3.6,3.6,32,0.00,,SCT025,0.00,VWS V14.00,2013-03-03 17:04:00,
2013-03-03 12:09:00,52.7,23.7,30.15,West,270,6.3,6.3,32,0.00,,SCT025,0.00,VWS V14.00,2013-03-03 17:09:00,
2013-03-03 12:14:00,53.6,23.7,30.15,West,270,7.8,7.8,31,0.00,,SCT025,0.00,VWS V14.00,2013-03-03 17:14:00,
2013-03-03 12:19:00,53.8,24.6,30.12,West,270,3.1,3.1,32,0.00,,SCT025,0.00,VWS V14.00,2013-03-03 17:19:00,
2013-03-03 12:24:00,54.3,25.1,30.12,WSW,248,1.1,1.1,32,0.00,,SCT025,0.00,VWS V14.00,2013-03-03 17:24:00,
2013-03-03 12:29:00,54.3,25.1,30.12,WNW,292,6.7,6.7,32,0.00,,SCT025,0.00,VWS V14.00,2013-03-03 17:29:00,
2013-03-03 12:34:00,54.5,26.0,30.15,NW,315,7.6,7.6,33,0.00,,SCT025,0.00,VWS V14.00,2013-03-03 17:34:00,
2013-03-03 12:39:00,54.9,26.3,30.15,WSW,248,5.4,5.4,33,0.00,,SCT025,0.00,VWS V14.00,2013-03-03 17:39:00,
2013-03-03 12:44:00,54.9,25.6,30.15,West,270,6.5,6.5,32,0.00,,SCT025,0.00,VWS V14.00,2013-03-03 17:44:00,
2013-03-03 12:49:00,54.7,25.4,30.12,SW,225,6.0,6.0,32,0.00,,SCT025,0.00,VWS V14.00,2013-03-03 17:49:00,
2013-03-03 12:54:00,54.9,25.6,30.12,NW,315,2.7,2.7,32,0.00,,SCT025,0.00,VWS V14.00,2013-03-03 17:54:00,
2013-03-03 12:59:00,54.9,26.3,30.12,WSW,248,3.1,3.1,33,0.00,,SCT025,0.00,VWS V14.00,2013-03-03 17:59:00,
2013-03-03 13:04:00,55.0,26.5,30.09,WSW,248,6.3,6.3,33,0.00,,SCT025,0.00,VWS V14.00,2013-03-03 18:04:00,
2013-03-03 13:09:00,55.2,25.9,30.09,West,270,4.3,4.3,32,0.00,,SCT025,0.00,VWS V14.00,2013-03-03 18:09:00,
2013-03-03 13:13:00,55.2,25.9,30.09,WSW,248,9.8,9.8,32,0.00,,SCT025,0.00,VWS V14.00,2013-03-03 18:13:00,
2013-03-03 13:18:00,55.2,25.9,30.09,WNW,292,5.4,5.4,32,0.00,,SCT025,0.00,VWS V14.00,2013-03-03 18:18:00,
2013-03-03 13:23:00,55.2,25.9,30.12,WNW,292,1.6,1.6,32,0.00,,SCT025,0.00,VWS V14.00,2013-03-03 18:23:00,
2013-03-03 13:28:00,55.4,24.5,30.12,WNW,292,5.6,5.6,30,0.00,,SCT025,0.00,VWS V14.00,2013-03-03 18:28:00,
2013-03-03 13:33:00,55.2,24.4,30.12,West,270,10.1,10.1,30,0.00,,SCT025,0.00,VWS V14.00,2013-03-03 18:33:00,
2013-03-03 13:38:00,55.4,25.3,30.12,WSW,248,5.6,5.6,31,0.00,,SCT025,0.00,VWS V14.00,2013-03-03 18:38:00,
2013-03-03 13:43:00,55.2,24.4,30.12,WSW,248,4.9,4.9,30,0.00,,SCT025,0.00,VWS V14.00,2013-03-03 18:43:00,
2013-03-03 13:48:00,55.2,24.4,30.12,WNW,292,6.0,6.0,30,0.00,,SCT025,0.00,VWS V14.00,2013-03-03 18:48:00,
2013-03-03 13:53:00,55.2,24.4,30.12,WSW,248,6.0,6.0,30,0.00,,SCT025,0.00,VWS V14.00,2013-03-03 18:53:00,
2013-03-03 13:58:00,55.2,24.4,30.12,West,270,5.8,5.8,30,0.00,,SCT025,0.00,VWS V14.00,2013-03-03 18:58:00,
2013-03-03 14:03:00,55.2,23.5,30.12,WNW,292,2.7,2.7,29,0.00,,SCT025,0.00,VWS V14.00,2013-03-03 19:03:00,
2013-03-03 14:08:00,55.2,23.5,30.12,WSW,248,4.3,4.3,29,0.00,,SCT025,0.00,VWS V14.00,2013-03-03 19:08:00,
2013-03-03 14:13:00,55.2,23.5,30.12,WSW,248,3.8,3.8,29,0.00,,SCT025,0.00,VWS V14.00,2013-03-03 19:13:00,
2013-03-03 14:18:00,55.8,23.2,30.12,West,270,9.8,9.8,28,0.00,,SCT025,0.00,VWS V14.00,2013-03-03 19:18:00,
2013-03-03 14:23:00,55.9,24.2,30.12,WNW,292,3.4,3.4,29,0.00,,SCT025,0.00,VWS V14.00,2013-03-03 19:23:00,
2013-03-03 14:28:00,55.9,23.3,30.12,WSW,248,4.0,4.0,28,0.00,,SCT025,0.00,VWS V14.00,2013-03-03 19:28:00,
2013-03-03 14:33:00,56.1,24.3,30.09,West,270,3.8,3.8,29,0.00,,SCT025,0.00,VWS V14.00,2013-03-03 19:33:00,
2013-03-03 14:38:00,55.9,24.2,30.09,WNW,292,3.6,3.6,29,0.00,,SCT025,0.00,VWS V14.00,2013-03-03 19:38:00,
2013-03-03 14:43:00,56.3,23.6,30.09,West,270,2.7,2.7,28,0.00,,SCT025,0.00,VWS V14.00,2013-03-03 19:43:00,
2013-03-03 14:48:00,56.3,23.6,30.09,WNW,292,5.4,5.4,28,0.00,,SCT025,0.00,VWS V14.00,2013-03-03 19:48:00,
2013-03-03 14:53:00,56.3,23.6,30.09,WNW,292,8.5,8.5,28,0.00,,SCT025,0.00,VWS V14.00,2013-03-03 19:53:00,
2013-03-03 14:58:00,55.9,22.5,30.09,West,270,3.4,3.4,27,0.00,,SCT025,0.00,VWS V14.00,2013-03-03 19:58:00,
2013-03-03 15:03:00,56.3,22.8,30.09,West,270,6.0,6.0,27,0.00,,SCT025,0.00,VWS V14.00,2013-03-03 20:03:00,
2013-03-03 15:08:00,56.5,23.8,30.09,West,270,4.0,4.0,28,0.00,,SCT025,0.00,VWS V14.00,2013-03-03 20:08:00,
2013-03-03 15:13:00,56.7,23.1,30.09,West,270,3.8,3.8,27,0.00,,SCT025,0.00,VWS V14.00,2013-03-03 20:13:00,
2013-03-03 15:18:00,56.5,22.9,30.09,WSW,248,1.1,1.1,27,0.00,,SCT025,0.00,VWS V14.00,2013-03-03 20:18:00,
2013-03-03 15:23:00,56.7,23.1,30.09,WNW,292,4.3,4.3,27,0.00,,SCT025,0.00,VWS V14.00,2013-03-03 20:23:00,
2013-03-03 15:28:00,56.8,23.2,30.09,WNW,292,5.4,5.4,27,0.00,,SCT025,0.00,VWS V14.00,2013-03-03 20:28:00,
2013-03-03 15:33:00,56.5,22.9,30.09,West,270,3.8,3.8,27,0.00,,SCT025,0.00,VWS V14.00,2013-03-03 20:33:00,
2013-03-03 15:38:00,56.5,22.9,30.09,WNW,292,5.4,5.4,27,0.00,,SCT025,0.00,VWS V14.00,2013-03-03 20:38:00,
2013-03-03 15:43:00,56.7,23.1,30.09,WNW,292,3.6,3.6,27,0.00,,SCT025,0.00,VWS V14.00,2013-03-03 20:43:00,
2013-03-03 15:48:00,56.8,23.2,30.09,WNW,292,5.4,5.4,27,0.00,,SCT025,0.00,VWS V14.00,2013-03-03 20:48:00,
2013-03-03 15:53:00,56.7,23.1,30.09,West,270,5.6,5.6,27,0.00,,SCT025,0.00,VWS V14.00,2013-03-03 20:53:00,
2013-03-03 15:58:00,57.0,23.4,30.09,West,270,6.3,6.3,27,0.00,,SCT025,0.00,VWS V14.00,2013-03-03 20:58:00,
2013-03-03 16:03:00,56.8,23.2,30.09,West,270,8.1,8.1,27,0.00,,SCT025,0.00,VWS V14.00,2013-03-03 21:03:00,
2013-03-03 16:08:00,56.8,23.2,30.09,West,270,2.0,2.0,27,0.00,,SCT025,0.00,VWS V14.00,2013-03-03 21:08:00,
2013-03-03 16:13:00,57.0,23.4,30.09,WSW,248,7.8,7.8,27,0.00,,SCT025,0.00,VWS V14.00,2013-03-03 21:13:00,
2013-03-03 16:18:00,57.0,23.4,30.09,West,270,4.3,4.3,27,0.00,,SCT025,0.00,VWS V14.00,2013-03-03 21:18:00,
2013-03-03 16:23:00,56.7,23.1,30.09,West,270,2.9,2.9,27,0.00,,SCT025,0.00,VWS V14.00,2013-03-03 21:23:00,
2013-03-03 16:28:00,56.7,23.1,30.09,WSW,248,6.3,6.3,27,0.00,,SCT025,0.00,VWS V14.00,2013-03-03 21:28:00,
2013-03-03 16:33:00,56.1,22.6,30.12,West,270,2.7,2.7,27,0.00,,SCT025,0.00,VWS V14.00,2013-03-03 21:33:00,
2013-03-03 16:38:00,56.1,22.6,91.07,WNW,292,4.3,4.3,27,0.00,,SCT025,0.00,VWS V14.00,2013-03-03 21:38:00,
2013-03-03 16:43:00,56.1,22.6,30.12,West,270,3.4,3.4,27,0.00,,SCT025,0.00,VWS V14.00,2013-03-03 21:43:00,
2013-03-03 16:48:00,56.1,22.6,30.12,West,270,6.0,6.0,27,0.00,,SCT025,0.00,VWS V14.00,2013-03-03 21:48:00,
2013-03-03 16:53:00,56.3,22.8,30.12,West,270,6.0,6.0,27,0.00,,SCT025,0.00,VWS V14.00,2013-03-03 21:53:00,
2013-03-03 17:27:00,54.5,22.1,30.15,West,270,8.5,8.5,28,0.00,,SCT025,18.21,VWS V14.00,2013-03-03 22:27:00,
2013-03-03 17:32:00,54.0,21.6,30.12,WNW,292,3.8,3.8,28,0.00,,SCT025,0.00,VWS V14.00,2013-03-03 22:32:00,
2013-03-03 17:37:00,53.6,21.3,30.12,West,270,8.5,8.5,28,0.00,,SCT025,0.00,VWS V14.00,2013-03-03 22:37:00,
2013-03-03 17:42:00,53.4,22.0,30.12,WSW,248,3.1,3.1,29,0.00,,SCT025,0.00,VWS V14.00,2013-03-03 22:42:00,
2013-03-03 17:47:00,53.1,21.7,30.15,WNW,292,4.7,4.7,29,0.00,,SCT025,0.00,VWS V14.00,2013-03-03 22:47:00,
2013-03-03 17:52:00,52.7,21.4,30.15,West,270,5.4,5.4,29,0.00,,SCT025,0.00,VWS V14.00,2013-03-03 22:52:00,
2013-03-03 17:57:00,52.3,21.0,30.15,West,270,3.4,3.4,29,0.00,,SCT025,0.00,VWS V14.00,2013-03-03 22:57:00,
2013-03-03 18:02:00,52.2,20.9,30.15,West,270,5.8,5.8,29,0.00,,SCT025,0.00,VWS V14.00,2013-03-03 23:02:00,
2013-03-03 18:07:00,51.8,21.4,30.15,West,270,1.6,1.6,30,0.00,,SCT025,0.00,VWS V14.00,2013-03-03 23:07:00,
2013-03-03 18:12:00,51.6,22.0,30.15,WSW,248,4.0,4.0,31,0.00,,SCT025,0.00,VWS V14.00,2013-03-03 23:12:00,
2013-03-03 18:17:00,51.4,21.8,30.18,West,270,4.7,4.7,31,0.00,,SCT025,0.00,VWS V14.00,2013-03-03 23:17:00,
2013-03-03 18:22:00,51.1,22.3,30.18,WSW,248,4.7,4.7,32,0.00,,SCT025,0.00,VWS V14.00,2013-03-03 23:22:00,
2013-03-03 18:27:00,50.9,22.1,30.18,West,270,4.0,4.0,32,0.00,,SCT025,0.00,VWS V14.00,2013-03-03 23:27:00,
2013-03-03 18:32:00,50.7,22.0,30.18,West,270,1.3,1.3,32,0.00,,SCT025,0.00,VWS V14.00,2013-03-03 23:32:00,
2013-03-03 18:37:00,50.5,22.5,30.18,West,270,1.3,1.3,33,0.00,,SCT025,0.00,VWS V14.00,2013-03-03 23:37:00,
2013-03-03 18:42:00,50.2,22.9,30.18,West,270,4.5,4.5,34,0.00,,SCT025,0.00,VWS V14.00,2013-03-03 23:42:00,
2013-03-03 18:47:00,50.2,22.9,30.18,West,270,0.0,0.0,34,0.00,,SCT025,0.00,VWS V14.00,2013-03-03 23:47:00,
2013-03-03 18:51:00,50.0,23.4,30.18,West,270,2.5,2.5,35,0.00,,SCT025,0.00,VWS V14.00,2013-03-03 23:51:00,
2013-03-03 18:56:00,49.8,24.0,30.18,West,270,0.0,0.0,36,0.00,,SCT025,0.00,VWS V14.00,2013-03-03 23:56:00,
2013-03-03 19:01:00,49.5,23.6,30.18,West,270,1.3,1.3,36,0.00,,SCT025,0.00,VWS V14.00,2013-03-04 00:01:00,
2013-03-03 19:06:00,49.3,23.5,30.18,West,270,1.1,1.1,36,0.00,,SCT025,0.00,VWS V14.00,2013-03-04 00:06:00,
2013-03-03 19:11:00,49.3,24.1,30.18,West,270,0.0,0.0,37,0.00,,SCT025,0.00,VWS V14.00,2013-03-04 00:11:00,
2013-03-03 19:16:00,48.9,23.8,30.18,West,270,1.3,1.3,37,0.00,,SCT025,0.00,VWS V14.00,2013-03-04 00:16:00,
2013-03-03 19:21:00,48.7,23.6,30.18,West,270,2.2,2.2,37,0.00,,SCT025,0.00,VWS V14.00,2013-03-04 00:21:00,
2013-03-03 19:26:00,48.7,23.6,30.18,West,270,1.3,1.3,37,0.00,,SCT025,0.00,VWS V14.00,2013-03-04 00:26:00,
2013-03-03 19:31:00,48.6,23.5,30.18,West,270,0.0,0.0,37,0.00,,SCT025,0.00,VWS V14.00,2013-03-04 00:31:00,
2013-03-03 19:36:00,48.4,23.3,30.21,West,270,0.0,0.0,37,0.00,,SCT025,0.00,VWS V14.00,2013-03-04 00:36:00,
2013-03-03 19:41:00,48.2,23.2,30.21,West,270,0.0,0.0,37,0.00,,SCT025,0.00,VWS V14.00,2013-03-04 00:41:00,
2013-03-03 19:46:00,48.2,23.2,30.21,West,270,0.0,0.0,37,0.00,,SCT025,0.00,VWS V14.00,2013-03-04 00:46:00,
2013-03-03 19:51:00,48.2,23.2,30.21,West,270,0.0,0.0,37,0.00,,SCT025,0.00,VWS V14.00,2013-03-04 00:51:00,
2013-03-03 19:56:00,47.8,23.5,30.21,West,270,1.1,1.1,38,0.00,,SCT025,0.00,VWS V14.00,2013-03-04 00:56:00,
2013-03-03 20:01:00,47.7,23.3,30.21,West,270,1.3,1.3,38,0.00,,SCT025,0.00,VWS V14.00,2013-03-04 01:01:00,
2013-03-03 20:06:00,47.7,23.9,30.21,West,270,2.2,2.2,39,0.00,,SCT025,0.00,VWS V14.00,2013-03-04 01:06:00,
2013-03-03 20:11:00,47.7,23.9,30.21,West,270,0.9,0.9,39,0.00,,SCT025,0.00,VWS V14.00,2013-03-04 01:11:00,
2013-03-03 20:16:00,47.7,23.9,30.21,West,270,0.9,0.9,39,0.00,,SCT025,0.00,VWS V14.00,2013-03-04 01:16:00,
2013-03-03 20:21:00,47.3,23.6,30.21,West,270,0.9,0.9,39,0.00,,SCT025,0.00,VWS V14.00,2013-03-04 01:21:00,
2013-03-03 20:26:00,47.3,23.6,30.21,West,270,0.0,0.0,39,0.00,,SCT025,0.00,VWS V14.00,2013-03-04 01:26:00,
2013-03-03 20:31:00,47.3,23.6,30.21,West,270,0.0,0.0,39,0.00,,SCT025,0.00,VWS V14.00,2013-03-04 01:31:00,
2013-03-03 20:36:00,46.8,23.7,30.21,West,270,0.0,0.0,40,0.00,,SCT025,0.00,VWS V14.00,2013-03-04 01:36:00,
2013-03-03 20:41:00,46.4,23.4,30.21,West,270,0.0,0.0,40,0.00,,SCT025,0.00,VWS V14.00,2013-03-04 01:41:00,
2013-03-03 20:46:00,46.4,23.4,30.21,West,270,0.0,0.0,40,0.00,,SCT025,0.00,VWS V14.00,2013-03-04 01:46:00,
2013-03-03 20:51:00,46.0,23.7,30.21,West,270,0.0,0.0,41,0.00,,SCT025,0.00,VWS V14.00,2013-03-04 01:51:00,
2013-03-03 20:56:00,45.9,24.1,30.21,West,270,0.0,0.0,42,0.00,,SCT025,0.00,VWS V14.00,2013-03-04 01:56:00,
2013-03-03 21:01:00,45.7,23.9,30.21,West,270,0.9,0.9,42,0.00,,SCT025,0.00,VWS V14.00,2013-03-04 02:01:00,
2013-03-03 21:06:00,45.3,24.2,30.21,West,270,1.3,1.3,43,0.00,,SCT025,0.00,VWS V14.00,2013-03-04 02:06:00,
2013-03-03 21:11:00,45.3,24.7,30.21,West,270,1.3,1.3,44,0.00,,SCT025,0.00,VWS V14.00,2013-03-04 02:11:00,
2013-03-03 21:16:00,45.5,24.9,30.24,West,270,0.0,0.0,44,0.00,,SCT025,0.00,VWS V14.00,2013-03-04 02:16:00,
2013-03-03 21:21:00,45.5,24.9,30.24,West,270,2.9,2.9,44,0.00,,SCT025,0.00,VWS V14.00,2013-03-04 02:21:00,
2013-03-03 21:26:00,45.5,24.9,30.24,West,270,1.1,1.1,44,0.00,,SCT025,0.00,VWS V14.00,2013-03-04 02:26:00,
2013-03-03 21:31:00,45.3,24.7,30.24,West,270,1.3,1.3,44,0.00,,SCT025,0.00,VWS V14.00,2013-03-04 02:31:00,
2013-03-03 21:36:00,45.3,24.7,30.24,West,270,2.5,2.5,44,0.00,,SCT025,0.00,VWS V14.00,2013-03-04 02:36:00,
2013-03-03 21:41:00,45.3,25.2,30.24,West,270,0.0,0.0,45,0.00,,SCT025,0.00,VWS V14.00,2013-03-04 02:41:00,
2013-03-03 21:46:00,45.1,24.5,30.24,West,270,2.0,2.0,44,0.00,,SCT025,0.00,VWS V14.00,2013-03-04 02:46:00,
2013-03-03 21:51:00,45.1,24.5,30.24,West,270,1.3,1.3,44,0.00,,SCT025,0.00,VWS V14.00,2013-03-04 02:51:00,
2013-03-03 21:56:00,45.0,25.4,30.24,West,270,2.2,2.2,46,0.00,,SCT025,0.00,VWS V14.00,2013-03-04 02:56:00,
2013-03-03 22:01:00,44.8,24.8,30.24,West,270,0.9,0.9,45,0.00,,SCT025,0.00,VWS V14.00,2013-03-04 03:01:00,
2013-03-03 22:06:00,44.8,25.3,30.24,West,270,2.9,2.9,46,0.00,,SCT025,0.00,VWS V14.00,2013-03-04 03:06:00,
2013-03-03 22:11:00,44.8,25.3,30.24,West,270,1.3,1.3,46,0.00,,SCT025,0.00,VWS V14.00,2013-03-04 03:11:00,
2013-03-03 22:16:00,44.6,25.1,30.24,West,270,3.4,3.4,46,0.00,,SCT025,0.00,VWS V14.00,2013-03-04 03:16:00,
2013-03-03 22:21:00,44.6,25.1,30.24,West,270,3.1,3.1,46,0.00,,SCT025,0.00,VWS V14.00,2013-03-04 03:21:00,
2013-03-03 22:26:00,44.6,25.6,30.24,West,270,0.0,0.0,47,0.00,,SCT025,0.00,VWS V14.00,2013-03-04 03:26:00,
2013-03-03 22:31:00,44.4,25.5,30.24,West,270,1.3,1.3,47,0.00,,SCT025,0.00,VWS V14.00,2013-03-04 03:31:00,
2013-03-03 22:36:00,44.2,25.8,30.27,West,270,3.8,3.8,48,0.00,,SCT025,0.00,VWS V14.00,2013-03-04 03:36:00,
2013-03-03 22:41:00,44.1,25.6,30.27,West,270,2.7,2.7,48,0.00,,SCT025,0.00,VWS V14.00,2013-03-04 03:41:00,
2013-03-03 22:46:00,43.9,25.5,30.27,West,270,2.7,2.7,48,0.00,,SCT025,0.00,VWS V14.00,2013-03-04 03:46:00,
2013-03-03 22:51:00,43.7,25.3,30.27,West,270,1.1,1.1,48,0.00,,SCT025,0.00,VWS V14.00,2013-03-04 03:51:00,
2013-03-03 22:56:00,43.5,25.1,30.27,West,270,2.5,2.5,48,0.00,,SCT025,0.00,VWS V14.00,2013-03-04 03:56:00,
2013-03-03 23:01:00,43.3,25.5,30.30,West,270,3.1,3.1,49,0.00,,SCT025,0.00,VWS V14.00,2013-03-04 04:01:00,
2013-03-03 23:06:00,43.3,25.5,30.30,West,270,0.9,0.9,49,0.00,,SCT025,0.00,VWS V14.00,2013-03-04 04:06:00,
2013-03-03 23:11:00,43.2,25.3,30.30,West,270,1.1,1.1,49,0.00,,SCT025,0.00,VWS V14.00,2013-03-04 04:11:00,
2013-03-03 23:16:00,43.2,25.3,30.30,West,270,2.2,2.2,49,0.00,,SCT025,0.00,VWS V14.00,2013-03-04 04:16:00,
2013-03-03 23:21:00,43.0,25.1,30.30,West,270,2.5,2.5,49,0.00,,SCT025,0.00,VWS V14.00,2013-03-04 04:21:00,
2013-03-03 23:26:00,42.8,25.0,30.30,West,270,2.5,2.5,49,0.00,,SCT025,0.00,VWS V14.00,2013-03-04 04:26:00,
2013-03-03 23:31:00,42.6,25.3,30.27,West,270,0.0,0.0,50,0.00,,SCT025,0.00,VWS V14.00,2013-03-04 04:31:00,
2013-03-03 23:36:00,42.4,25.1,30.27,West,270,2.0,2.0,50,0.00,,SCT025,0.00,VWS V14.00,2013-03-04 04:36:00,
2013-03-03 23:41:00,42.3,25.0,30.27,West,270,2.0,2.0,50,0.00,,SCT025,0.00,VWS V14.00,2013-03-04 04:41:00,
2013-03-03 23:46:00,42.3,25.4,30.30,West,270,1.3,1.3,51,0.00,,SCT025,0.00,VWS V14.00,2013-03-04 04:46:00,
2013-03-03 23:51:00,42.1,25.3,30.30,West,270,1.3,1.3,51,0.00,,SCT025,0.00,VWS V14.00,2013-03-04 04:51:00,
2013-03-03 23:56:00,42.1,25.3,30.30,West,270,1.6,1.6,51,0.00,,SCT025,0.00,VWS V14.00,2013-03-04 04:56:00,